Time;durP1;ratioP1;P1;durP2;ratioP2;P2;SDS_P1;SDS_P2;PMS_P1;PMS_P2;Temp;Humidity;BMP_temperature;BMP_pressure;BME280_temperature;BME280_humidity;BME280_pressure;Samples;Min_cycle;Max_cycle;Signal;HPM_P1;HPM_P2
2023/01/21 05:01:12;;;;;;;130.65;31.08;;;-0.70;99.90;;;;;;6006059;23;20027;-81
2023/01/21 05:03:38;;;;;;;121.20;32.08;;;-0.60;99.90;;;;;;6070760;23;20010;-78
2023/01/21 05:06:04;;;;;;;156.07;31.92;;;-0.60;99.90;;;;;;6044875;23;20019;-78
2023/01/21 05:08:29;;;;;;;179.32;35.15;;;-0.60;99.90;;;;;;6045243;23;20018;-80
2023/01/21 05:10:55;;;;;;;137.00;30.67;;;-0.60;99.90;;;;;;6015317;23;20026;-83
2023/01/21 05:13:21;;;;;;;106.07;30.35;;;-0.60;99.90;;;;;;6042413;23;20015;-79
2023/01/21 05:15:46;;;;;;;205.20;35.33;;;-0.60;99.90;;;;;;6016408;23;20015;-79
2023/01/21 05:18:12;;;;;;;127.15;29.63;;;-0.60;99.90;;;;;;6041628;23;20112;-81
2023/01/21 05:20:37;;;;;;;201.60;35.78;;;-0.60;99.90;;;;;;6016443;23;20387;-83
2023/01/21 05:23:03;;;;;;;239.32;36.83;;;-0.60;99.90;;;;;;5993180;23;20331;-84
2023/01/21 05:25:29;;;;;;;146.40;32.22;;;-0.60;99.90;;;;;;6041660;23;20071;-79
2023/01/21 05:27:55;;;;;;;176.60;35.55;;;-0.60;99.90;;;;;;5992426;23;20073;-77
2023/01/21 05:30:21;;;;;;;221.60;36.60;;;-0.60;99.90;;;;;;5991977;23;20030;-82
2023/01/21 05:32:53;;;;;;;176.50;33.60;;;-0.60;99.90;;;;;;6015730;23;20015;-81
2023/01/21 05:35:21;;;;;;;162.52;35.88;;;-0.60;99.90;;;;;;6016168;23;20048;-82
2023/01/21 05:37:46;;;;;;;211.10;36.08;;;-0.50;99.90;;;;;;6015864;23;20015;-82
2023/01/21 05:40:14;;;;;;;184.95;33.55;;;-0.60;99.90;;;;;;6015995;23;20027;-82
2023/01/21 05:42:40;;;;;;;239.93;38.20;;;-0.60;99.90;;;;;;6015783;23;20026;-81
2023/01/21 05:45:06;;;;;;;271.65;38.75;;;-0.50;99.90;;;;;;6015595;23;20019;-82
2023/01/21 05:47:31;;;;;;;354.77;43.33;;;-0.60;99.90;;;;;;5992300;23;20019;-79
2023/01/21 05:49:57;;;;;;;313.95;38.63;;;-0.60;99.90;;;;;;6015787;23;20385;-81
2023/01/21 05:52:23;;;;;;;269.98;40.47;;;-0.60;99.90;;;;;;6041072;23;20012;-81
2023/01/21 05:54:48;;;;;;;249.57;37.83;;;-0.60;99.90;;;;;;5992419;23;20015;-80
2023/01/21 05:57:14;;;;;;;353.40;42.70;;;-0.60;99.90;;;;;;6015542;23;20015;-81
2023/01/21 05:59:39;;;;;;;279.38;37.25;;;-0.60;99.90;;;;;;6015928;23;20019;-82
2023/01/21 06:02:05;;;;;;;378.52;40.15;;;-0.60;99.90;;;;;;6015663;23;20027;-78
2023/01/21 06:04:30;;;;;;;304.25;36.17;;;-0.70;99.90;;;;;;5992401;23;20019;-83
2023/01/21 06:06:56;;;;;;;549.05;51.60;;;-0.70;99.90;;;;;;6041748;23;20015;-83
2023/01/21 06:09:22;;;;;;;473.30;45.60;;;-0.70;99.90;;;;;;6041133;23;20442;-80
2023/01/21 06:11:48;;;;;;;533.20;51.55;;;-0.70;99.90;;;;;;6016081;23;20335;-81
2023/01/21 06:14:13;;;;;;;342.30;44.80;;;-0.70;99.90;;;;;;6015634;23;20387;-77
2023/01/21 06:16:39;;;;;;;548.47;54.20;;;-0.70;99.90;;;;;;6042642;23;20023;-86
2023/01/21 06:19:04;;;;;;;207.60;37.17;;;-0.70;99.90;;;;;;6042959;23;20047;-82
2023/01/21 06:21:30;;;;;;;257.42;40.25;;;-0.70;99.90;;;;;;6017398;23;20015;-82
2023/01/21 06:23:56;;;;;;;319.77;41.83;;;-0.70;99.90;;;;;;5994262;23;20022;-82
2023/01/21 06:26:22;;;;;;;268.08;41.90;;;-0.60;99.90;;;;;;6043476;23;20011;-80
2023/01/21 06:28:47;;;;;;;341.88;42.40;;;-0.70;99.90;;;;;;6043262;23;20374;-82
2023/01/21 06:31:13;;;;;;;297.00;40.03;;;-0.60;99.90;;;;;;6016866;23;20353;-81
2023/01/21 06:33:39;;;;;;;231.90;39.42;;;-0.70;99.90;;;;;;6017503;23;20322;-79
2023/01/21 06:36:04;;;;;;;177.35;37.75;;;-0.70;99.90;;;;;;5994115;23;20091;-81
2023/01/21 06:38:34;;;;;;;235.77;38.67;;;-0.70;99.90;;;;;;6017537;23;20038;-82
2023/01/21 06:41:01;;;;;;;239.57;38.47;;;-0.60;99.90;;;;;;6042982;23;20082;-80
2023/01/21 06:43:27;;;;;;;288.73;42.00;;;-0.60;99.90;;;;;;6019210;23;20409;-80
2023/01/21 06:45:52;;;;;;;244.45;40.78;;;-0.60;99.90;;;;;;5994638;23;20019;-82
2023/01/21 06:48:19;;;;;;;175.65;35.92;;;-0.60;99.90;;;;;;6018048;23;20019;-82
2023/01/21 06:50:45;;;;;;;151.60;36.15;;;-0.60;99.90;;;;;;6017625;23;20027;-84
2023/01/21 06:53:11;;;;;;;209.20;37.28;;;-0.60;99.90;;;;;;6043859;23;20016;-82
2023/01/21 06:55:37;;;;;;;233.32;36.90;;;-0.60;99.90;;;;;;6044674;23;20056;-81
2023/01/21 06:58:02;;;;;;;219.57;37.40;;;-0.60;99.90;;;;;;6043024;23;20086;-80
2023/01/21 07:00:28;;;;;;;128.52;34.72;;;-0.60;99.90;;;;;;6016929;23;20027;-80
2023/01/21 07:02:56;;;;;;;178.13;35.10;;;-0.60;99.90;;;;;;6018409;23;20070;-83
2023/01/21 07:05:21;;;;;;;164.38;34.88;;;-0.60;99.90;;;;;;6043409;23;20314;-84
2023/01/21 07:07:47;;;;;;;256.73;40.47;;;-0.60;99.90;;;;;;6018074;23;20015;-80
2023/01/21 07:10:12;;;;;;;163.70;35.47;;;-0.60;99.90;;;;;;6017583;23;20459;-84
2023/01/21 07:12:38;;;;;;;186.63;38.83;;;-0.60;99.90;;;;;;6017659;23;20019;-79
2023/01/21 07:15:04;;;;;;;178.82;37.45;;;-0.70;99.90;;;;;;6042566;23;20082;-81
2023/01/21 07:17:30;;;;;;;128.70;34.08;;;-0.70;99.90;;;;;;6017494;23;20390;-82
2023/01/21 07:19:56;;;;;;;172.68;34.97;;;-0.70;99.90;;;;;;6017162;23;20023;-81
2023/01/21 07:22:21;;;;;;;175.55;36.90;;;-0.60;99.90;;;;;;6017115;23;20011;-77
2023/01/21 07:24:47;;;;;;;164.88;35.42;;;-0.60;99.90;;;;;;6017009;23;20445;-81
2023/01/21 07:27:13;;;;;;;149.68;35.47;;;-0.60;99.90;;;;;;6016836;23;20359;-84
2023/01/21 07:29:38;;;;;;;135.15;33.75;;;-0.70;99.90;;;;;;6017212;23;20011;-82
2023/01/21 07:32:04;;;;;;;136.13;34.03;;;-0.60;99.90;;;;;;6016913;23;20012;-78
2023/01/21 07:34:30;;;;;;;137.60;33.20;;;-0.60;99.90;;;;;;6017138;23;20016;-83
2023/01/21 07:36:55;;;;;;;125.60;34.15;;;-0.60;99.90;;;;;;6017952;23;20506;-84
2023/01/21 07:39:21;;;;;;;125.93;33.88;;;-0.50;99.90;;;;;;6017637;23;20012;-83
2023/01/21 07:41:48;;;;;;;154.70;34.40;;;-0.60;99.90;;;;;;6018994;23;20015;-79
2023/01/21 07:44:16;;;;;;;139.48;33.13;;;-0.60;99.90;;;;;;6019327;23;20030;-78
2023/01/21 07:46:41;;;;;;;140.98;34.03;;;-0.60;99.90;;;;;;6034098;23;20406;-75
2023/01/21 07:49:15;;;;;;;134.02;32.15;;;-0.50;99.90;;;;;;6032112;23;20022;-81
2023/01/21 07:51:43;;;;;;;129.50;33.95;;;-0.60;99.90;;;;;;6044278;23;20019;-78
2023/01/21 07:54:10;;;;;;;125.85;31.98;;;-0.60;99.90;;;;;;6017711;23;20011;-77
2023/01/21 07:56:37;;;;;;;140.38;34.47;;;-0.50;99.90;;;;;;6017917;23;20012;-85
2023/01/21 07:59:03;;;;;;;138.05;32.95;;;-0.50;99.90;;;;;;6019308;23;20030;-78
2023/01/21 08:01:30;;;;;;;124.30;33.17;;;-0.50;99.90;;;;;;5994659;23;20094;-84
2023/01/21 08:03:59;;;;;;;155.60;33.38;;;-0.60;99.90;;;;;;6043018;23;20015;-80
2023/01/21 08:06:26;;;;;;;200.10;35.67;;;-0.60;99.90;;;;;;6017747;23;20108;-79
2023/01/21 08:08:51;;;;;;;253.93;36.97;;;-0.60;99.90;;;;;;6017524;23;20094;-79
2023/01/21 08:11:17;;;;;;;304.38;40.92;;;-0.70;99.90;;;;;;6017435;23;20468;-82
2023/01/21 08:13:43;;;;;;;157.18;33.35;;;-0.70;99.90;;;;;;5993409;23;20355;-82
2023/01/21 08:16:11;;;;;;;407.33;42.28;;;-0.80;99.90;;;;;;6017172;23;20078;-84
2023/01/21 08:18:37;;;;;;;580.47;48.75;;;-0.80;99.90;;;;;;6042823;23;20472;-80
2023/01/21 08:21:02;;;;;;;814.92;60.47;;;-0.80;99.90;;;;;;5993622;23;20019;-78
2023/01/21 08:23:28;;;;;;;668.08;54.75;;;-0.80;99.90;;;;;;6016747;23;20015;-79
2023/01/21 08:25:54;;;;;;;546.85;43.45;;;-0.90;99.90;;;;;;6017420;23;20040;-81
2023/01/21 08:28:21;;;;;;;618.67;51.92;;;-0.90;99.90;;;;;;6017251;23;20019;-83
2023/01/21 08:30:46;;;;;;;551.70;45.13;;;-0.90;99.90;;;;;;6017339;23;20113;-79
2023/01/21 08:33:12;;;;;;;612.05;45.55;;;-0.90;99.90;;;;;;5993600;23;20015;-83
2023/01/21 08:35:38;;;;;;;607.85;47.20;;;-1.00;99.90;;;;;;6042147;23;20501;-79
2023/01/21 08:38:03;;;;;;;706.22;61.35;;;-1.00;99.90;;;;;;6016532;23;20015;-79
2023/01/21 08:40:29;;;;;;;523.63;43.58;;;-1.10;99.90;;;;;;6016892;23;20027;-80
2023/01/21 08:42:59;;;;;;;453.70;39.17;;;-1.00;99.90;;;;;;5993021;23;20015;-79
2023/01/21 08:45:25;;;;;;;442.02;40.95;;;-1.00;99.90;;;;;;6017196;23;20015;-81
2023/01/21 08:47:51;;;;;;;539.33;43.42;;;-1.00;99.90;;;;;;6041856;23;20026;-77
2023/01/21 08:50:16;;;;;;;481.92;40.85;;;-1.00;99.90;;;;;;6016394;23;20011;-82
2023/01/21 08:52:48;;;;;;;441.13;41.47;;;-1.00;99.90;;;;;;6042309;23;20075;-79
2023/01/21 08:55:14;;;;;;;444.20;37.47;;;-1.00;99.90;;;;;;6016851;23;20015;-82
2023/01/21 08:57:40;;;;;;;638.75;48.25;;;-0.90;99.90;;;;;;6017289;23;20011;-79
2023/01/21 09:00:06;;;;;;;516.78;39.85;;;-1.00;99.90;;;;;;6042284;23;20062;-83
2023/01/21 09:02:31;;;;;;;596.03;45.28;;;-1.00;99.90;;;;;;5992976;23;20017;-79
2023/01/21 09:04:57;;;;;;;348.80;33.58;;;-1.00;99.90;;;;;;6017042;23;20022;-81
2023/01/21 09:07:23;;;;;;;403.92;32.47;;;-1.00;99.90;;;;;;6042410;23;20345;-83
2023/01/21 09:09:48;;;;;;;448.90;34.53;;;-1.00;99.90;;;;;;5993411;23;20016;-81
2023/01/21 09:12:14;;;;;;;395.65;32.72;;;-1.00;99.90;;;;;;6016539;23;20052;-77
2023/01/21 09:14:40;;;;;;;398.05;33.33;;;-0.90;99.90;;;;;;6041947;23;20011;-80
2023/01/21 09:17:05;;;;;;;302.05;29.30;;;-0.90;99.90;;;;;;6016475;23;20015;-77
2023/01/21 09:19:31;;;;;;;422.70;32.85;;;-0.80;99.90;;;;;;6042755;23;20020;-82
2023/01/21 09:21:57;;;;;;;362.27;31.05;;;-0.80;99.90;;;;;;6016676;23;20098;-83
2023/01/21 09:24:23;;;;;;;382.58;32.35;;;-0.80;99.90;;;;;;6016225;23;20074;-81
2023/01/21 09:26:49;;;;;;;290.63;29.23;;;-0.70;99.90;;;;;;5993101;23;20051;-80
2023/01/21 09:29:15;;;;;;;532.67;39.55;;;-0.70;99.90;;;;;;6016012;23;20027;-81
2023/01/21 09:31:40;;;;;;;332.17;32.00;;;-0.60;99.90;;;;;;6015866;23;20019;-80
2023/01/21 09:34:08;;;;;;;474.58;35.08;;;-0.60;99.90;;;;;;6016592;23;20031;-82
2023/01/21 09:36:34;;;;;;;318.25;32.30;;;-0.60;99.90;;;;;;6041419;23;20090;-79
2023/01/21 09:39:00;;;;;;;675.58;44.95;;;-0.50;99.90;;;;;;6015378;23;20060;-79
2023/01/21 09:41:37;;;;;;;378.85;30.48;;;-0.50;99.90;;;;;;6040780;23;20016;-80
2023/01/21 09:44:30;;;;;;;334.83;27.33;;;-0.50;99.90;;;;;;6015296;23;20015;-82
2023/01/21 09:47:25;;;;;;;269.98;28.92;;;-0.50;99.90;;;;;;6040733;23;20015;-83
2023/01/21 09:49:53;;;;;;;401.23;36.42;;;-0.60;99.90;;;;;;6015677;23;20026;-80
2023/01/21 09:52:38;;;;;;;249.75;28.00;;;-0.50;99.90;;;;;;5993770;23;20093;-78
2023/01/21 09:55:11;;;;;;;360.15;30.85;;;-0.50;99.90;;;;;;6040929;23;20030;-79
2023/01/21 09:57:57;;;;;;;347.20;30.90;;;-0.50;99.90;;;;;;6017522;23;20015;-77
2023/01/21 10:00:32;;;;;;;363.23;32.30;;;-0.50;99.90;;;;;;6042756;23;20019;-80
2023/01/21 10:03:19;;;;;;;265.00;27.20;;;-0.60;99.90;;;;;;6016906;23;20015;-82
2023/01/21 10:06:00;;;;;;;307.25;26.70;;;-0.70;99.90;;;;;;6017820;23;20244;-77
2023/01/21 10:08:55;;;;;;;341.33;31.92;;;-0.70;99.90;;;;;;6017880;23;20055;-81
2023/01/21 10:11:58;;;;;;;346.20;30.35;;;-0.70;99.90;;;;;;6016877;23;20385;-77
2023/01/21 10:14:45;;;;;;;266.27;23.45;;;-0.60;99.90;;;;;;6042536;23;20026;-81
2023/01/21 10:17:31;;;;;;;294.10;27.38;;;-0.50;99.90;;;;;;6017802;23;20082;-82
2023/01/21 10:20:27;;;;;;;252.02;22.20;;;-0.60;99.90;;;;;;5971461;23;20042;-79
2023/01/21 10:23:23;;;;;;;333.75;25.92;;;-0.70;99.90;;;;;;6006771;23;20022;-81
2023/01/21 10:25:49;;;;;;;270.27;28.00;;;-0.60;99.90;;;;;;6015100;23;20070;-79
2023/01/21 10:28:22;;;;;;;317.35;31.70;;;-0.50;99.90;;;;;;6043390;23;20047;-79
2023/01/21 10:30:54;;;;;;;266.60;23.30;;;-0.50;99.90;;;;;;6017678;23;20379;-80
2023/01/21 10:33:21;;;;;;;383.25;32.00;;;-0.50;99.90;;;;;;6017706;23;20395;-81
2023/01/21 10:36:08;;;;;;;309.45;36.35;;;-0.50;99.90;;;;;;6042959;23;20046;-78
2023/01/21 10:38:53;;;;;;;165.55;22.40;;;-0.50;99.90;;;;;;6017492;23;20023;-82
2023/01/21 10:41:31;;;;;;;334.48;46.67;;;-0.50;99.90;;;;;;6042782;23;20055;-80
2023/01/21 10:44:05;;;;;;;277.33;38.63;;;-0.50;99.90;;;;;;6017598;23;20023;-81
2023/01/21 10:46:44;;;;;;;320.05;34.28;;;-0.60;99.90;;;;;;5993959;23;20071;-77
2023/01/21 10:49:24;;;;;;;242.05;29.40;;;-0.60;99.90;;;;;;6018247;23;20046;-82
2023/01/21 10:52:12;;;;;;;238.77;30.15;;;-0.60;99.90;;;;;;6017920;23;20516;-78
2023/01/21 10:54:46;;;;;;;224.18;27.95;;;-0.50;99.90;;;;;;6016777;23;20017;-79
2023/01/21 10:57:30;;;;;;;153.15;20.38;;;-0.50;99.90;;;;;;6042087;23;20012;-78
2023/01/21 10:59:59;;;;;;;161.65;19.30;;;-0.40;99.90;;;;;;6042490;23;20012;-78
2023/01/21 11:02:32;;;;;;;335.65;24.17;;;-0.30;99.90;;;;;;6016311;23;20022;-76
2023/01/21 11:05:04;;;;;;;282.48;28.50;;;-0.30;99.90;;;;;;6017056;23;20054;-78
2023/01/21 11:07:41;;;;;;;205.88;24.02;;;-0.30;99.90;;;;;;6017474;23;20015;-78
2023/01/21 11:10:10;;;;;;;178.02;23.35;;;-0.20;99.90;;;;;;6041307;23;20019;-79
2023/01/21 11:12:35;;;;;;;251.98;27.95;;;-0.10;99.90;;;;;;6015243;23;20011;-81
2023/01/21 11:15:27;;;;;;;159.73;21.40;;;0.00;99.90;;;;;;6016311;23;20047;-77
2023/01/21 11:17:55;;;;;;;171.25;20.35;;;0.00;99.90;;;;;;6040340;23;20047;-79
2023/01/21 11:20:34;;;;;;;143.48;20.35;;;0.00;99.90;;;;;;6041690;23;20019;-81
2023/01/21 11:23:03;;;;;;;142.27;22.65;;;0.10;99.90;;;;;;6016317;23;20020;-77
2023/01/21 11:25:40;;;;;;;205.60;27.00;;;0.10;99.90;;;;;;6016490;23;20019;-76
2023/01/21 11:28:25;;;;;;;154.35;24.35;;;0.20;99.90;;;;;;6017130;23;20137;-80
2023/01/21 11:31:09;;;;;;;161.23;25.07;;;0.10;99.90;;;;;;6015631;23;20019;-78
2023/01/21 11:33:36;;;;;;;202.57;27.38;;;0.10;99.90;;;;;;6015165;23;20494;-81
2023/01/21 11:36:20;;;;;;;209.45;29.60;;;0.10;99.90;;;;;;6015675;23;20062;-81
2023/01/21 11:39:08;;;;;;;153.48;26.20;;;0.20;99.90;;;;;;6015054;23;20029;-84
2023/01/21 11:41:34;;;;;;;153.85;27.00;;;0.20;99.90;;;;;;6039716;23;20082;-76
2023/01/21 11:44:19;;;;;;;200.05;29.60;;;0.30;99.90;;;;;;6040490;23;20015;-78
2023/01/21 11:46:45;;;;;;;159.45;30.42;;;0.40;99.90;;;;;;5992337;23;20326;-78
2023/01/21 11:49:11;;;;;;;160.10;27.55;;;0.50;99.90;;;;;;6014667;23;20054;-80
2023/01/21 11:51:39;;;;;;;267.52;33.58;;;0.50;99.90;;;;;;6015022;23;20026;-78
2023/01/21 11:54:06;;;;;;;135.98;26.65;;;0.50;99.90;;;;;;6040990;23;20318;-77
2023/01/21 11:56:31;;;;;;;148.73;26.08;;;0.40;99.90;;;;;;6014835;23;20442;-78
2023/01/21 11:58:57;;;;;;;145.75;27.98;;;0.50;99.90;;;;;;6014454;23;20043;-83
2023/01/21 12:01:23;;;;;;;171.25;28.50;;;0.50;99.90;;;;;;6014643;23;20067;-81
2023/01/21 12:03:59;;;;;;;151.25;26.92;;;0.60;99.90;;;;;;6014762;23;20079;-80
2023/01/21 12:06:30;;;;;;;134.20;28.40;;;0.70;99.90;;;;;;6014555;23;20481;-77
2023/01/21 12:09:01;;;;;;;182.48;28.23;;;0.80;99.90;;;;;;6040277;23;20017;-78
2023/01/21 12:11:29;;;;;;;189.57;29.17;;;0.90;99.90;;;;;;6014386;23;20024;-77
2023/01/21 12:14:23;;;;;;;184.18;29.73;;;0.90;99.90;;;;;;6014646;23;20022;-79
2023/01/21 12:17:15;;;;;;;174.45;31.45;;;1.00;99.90;;;;;;6015891;23;20015;-78
2023/01/21 12:19:51;;;;;;;108.07;26.00;;;1.00;99.90;;;;;;6042896;23;20016;-80
2023/01/21 12:22:48;;;;;;;158.68;31.58;;;1.00;99.90;;;;;;6027798;23;20051;-76
2023/01/21 12:25:29;;;;;;;109.15;26.90;;;1.00;99.90;;;;;;6023670;23;20090;-80
2023/01/21 12:28:20;;;;;;;147.07;30.90;;;1.10;99.90;;;;;;6015744;23;20094;-77
2023/01/21 12:31:31;;;;;;;107.22;27.60;;;1.20;99.90;;;;;;6015084;23;20047;-79
2023/01/21 12:34:14;;;;;;;181.45;32.72;;;1.30;99.90;;;;;;5875696;24;20028;-81
2023/01/21 12:36:45;;;;;;;99.63;28.58;;;1.40;99.90;;;;;;5990033;23;20042;-78
2023/01/21 12:39:24;;;;;;;98.55;27.08;;;1.40;99.90;;;;;;5992356;23;20019;-82
2023/01/21 12:42:06;;;;;;;95.22;28.13;;;1.40;99.90;;;;;;6015806;23;20029;-78
2023/01/21 12:45:00;;;;;;;78.88;26.38;;;1.50;99.90;;;;;;5992036;23;20015;-77
2023/01/21 12:47:41;;;;;;;91.55;29.00;;;1.60;99.90;;;;;;6015529;23;20058;-81
2023/01/21 12:50:15;;;;;;;69.55;26.65;;;1.60;99.90;;;;;;6040657;23;20047;-79
2023/01/21 12:53:02;;;;;;;163.23;39.33;;;1.70;99.90;;;;;;5992142;23;20019;-82
2023/01/21 12:55:58;;;;;;;123.25;43.00;;;1.80;99.90;;;;;;6040764;23;20366;-76
2023/01/21 12:58:25;;;;;;;;;;;1.90;99.90;;;;;;6015432;23;20098;-78
2023/01/21 13:00:53;;;;;;;110.95;43.42;;;2.10;99.90;;;;;;6013337;23;19913;-81
2023/01/21 13:03:23;;;;;;;67.15;27.75;;;2.30;99.90;;;;;;5990549;23;20023;-75
2023/01/21 13:06:13;;;;;;;66.68;28.08;;;2.60;99.90;;;;;;6015297;23;20023;-76
2023/01/21 13:09:03;;;;;;;69.53;28.00;;;2.70;99.90;;;;;;6040439;23;20022;-76
2023/01/21 13:11:34;;;;;;;68.13;30.55;;;3.10;99.90;;;;;;6014594;23;20015;-75
2023/01/21 13:14:06;;;;;;;70.47;30.23;;;3.30;99.90;;;;;;6014249;23;20034;-77
2023/01/21 13:16:39;;;;;;;59.45;27.17;;;3.60;99.90;;;;;;5990678;23;20469;-76
2023/01/21 13:19:05;;;;;;;65.85;29.60;;;3.80;99.90;;;;;;6014342;23;20086;-77
2023/01/21 13:21:45;;;;;;;57.17;27.77;;;3.90;99.90;;;;;;6039523;23;20046;-76
2023/01/21 13:24:30;;;;;;;56.53;27.30;;;4.10;99.90;;;;;;6014846;23;20016;-75
2023/01/21 13:27:11;;;;;;;58.20;28.15;;;4.20;99.90;;;;;;6014671;23;20054;-75
2023/01/21 13:30:02;;;;;;;58.13;27.17;;;4.40;99.90;;;;;;6039837;23;20350;-75
2023/01/21 13:32:43;;;;;;;54.63;24.92;;;4.60;99.90;;;;;;6039763;23;20019;-77
2023/01/21 13:35:33;;;;;;;54.17;25.60;;;4.70;99.90;;;;;;5990894;23;20449;-76
2023/01/21 13:38:15;;;;;;;49.45;24.27;;;4.90;99.90;;;;;;6014392;23;20012;-77
2023/01/21 13:41:10;;;;;;;48.10;25.08;;;5.10;99.90;;;;;;6014516;23;20056;-79
2023/01/21 13:43:53;;;;;;;45.25;25.05;;;5.20;99.90;;;;;;6014122;23;20015;-79
2023/01/21 13:46:37;;;;;;;48.22;23.55;;;5.30;99.90;;;;;;6040067;23;20015;-80
2023/01/21 13:49:34;;;;;;;44.15;22.45;;;5.30;99.90;;;;;;6014569;23;20030;-78
2023/01/21 13:52:26;;;;;;;39.50;21.95;;;5.50;99.90;;;;;;6024753;23;20062;-76
2023/01/21 13:55:12;;;;;;;37.95;19.83;;;5.70;99.90;;;;;;6014763;23;20054;-78
2023/01/21 13:58:04;;;;;;;41.60;22.52;;;6.00;99.90;;;;;;6014976;23;20023;-82
2023/01/21 14:00:39;;;;;;;40.88;21.15;;;5.80;99.90;;;;;;6033166;23;20072;-79
2023/01/21 14:03:18;;;;;;;45.55;22.33;;;5.50;99.90;;;;;;6040526;23;20438;-80
2023/01/21 14:05:47;;;;;;;41.42;20.67;;;5.00;99.90;;;;;;5991411;23;20030;-80
2023/01/21 14:08:34;;;;;;;42.70;21.08;;;4.80;99.90;;;;;;6014952;23;20346;-81
2023/01/21 14:11:22;;;;;;;41.83;20.58;;;4.70;99.90;;;;;;6040278;23;20018;-80
2023/01/21 14:14:02;;;;;;;45.83;21.05;;;4.50;99.90;;;;;;6040223;23;20091;-80
2023/01/21 14:16:46;;;;;;;42.47;20.73;;;4.40;99.90;;;;;;6040244;23;20023;-76
2023/01/21 14:19:30;;;;;;;42.97;20.80;;;4.30;99.90;;;;;;5991405;23;20015;-79
2023/01/21 14:22:20;;;;;;;47.47;22.00;;;4.10;99.90;;;;;;6014444;23;20460;-81
2023/01/21 14:24:59;;;;;;;45.03;22.25;;;4.00;99.90;;;;;;5991517;23;20094;-79
2023/01/21 14:27:52;;;;;;;39.03;20.38;;;3.90;99.90;;;;;;5991706;23;20023;-77
2023/01/21 14:30:23;;;;;;;36.35;19.50;;;3.90;99.90;;;;;;6014672;23;20020;-76
2023/01/21 14:33:00;;;;;;;39.08;20.05;;;3.80;99.90;;;;;;6040104;23;20011;-79
2023/01/21 14:35:33;;;;;;;37.30;18.67;;;3.80;99.90;;;;;;6015130;23;20016;-79
2023/01/21 14:38:04;;;;;;;33.45;18.50;;;3.60;99.90;;;;;;6042317;23;20018;-79
2023/01/21 14:40:34;;;;;;;40.13;18.88;;;3.60;99.90;;;;;;6016568;23;20019;-78
2023/01/21 14:42:59;;;;;;;38.05;18.35;;;3.50;99.90;;;;;;6016483;23;20051;-80
2023/01/21 14:45:51;;;;;;;35.35;17.48;;;3.40;99.90;;;;;;6041967;23;20342;-82
2023/01/21 14:48:41;;;;;;;35.63;18.15;;;3.40;99.90;;;;;;6016432;23;20023;-77
2023/01/21 14:51:06;;;;;;;32.33;17.33;;;3.30;99.90;;;;;;5998946;23;20083;-82
2023/01/21 14:54:01;;;;;;;29.90;15.60;;;3.20;99.90;;;;;;6016402;23;20086;-78
2023/01/21 14:56:28;;;;;;;24.80;13.00;;;3.20;99.90;;;;;;6016800;23;20054;-79
2023/01/21 14:58:55;;;;;;;21.10;11.73;;;3.10;99.90;;;;;;6015838;23;20133;-79
2023/01/21 15:01:43;;;;;;;18.33;11.23;;;3.00;99.90;;;;;;6040692;23;20019;-78
2023/01/21 15:04:26;;;;;;;18.33;9.88;;;2.90;99.90;;;;;;6016161;23;20047;-82
2023/01/21 15:06:56;;;;;;;21.02;10.45;;;2.80;99.90;;;;;;6015314;23;20027;-82
2023/01/21 15:09:28;;;;;;;19.02;10.65;;;2.70;99.90;;;;;;6041345;23;20315;-80
2023/01/21 15:12:16;;;;;;;22.77;10.77;;;2.60;99.90;;;;;;5992441;23;20019;-79
2023/01/21 15:14:44;;;;;;;18.85;10.43;;;2.50;99.90;;;;;;6016314;23;20345;-76
2023/01/21 15:17:45;;;;;;;19.40;10.50;;;2.60;99.90;;;;;;6015086;23;20442;-78
2023/01/21 15:20:43;;;;;;;21.38;11.40;;;2.50;99.90;;;;;;6014860;23;20454;-80
2023/01/21 15:23:18;;;;;;;20.00;11.02;;;2.50;99.90;;;;;;6015007;23;20442;-83
2023/01/21 15:26:10;;;;;;;20.05;10.52;;;2.50;99.90;;;;;;6015021;23;20476;-79
2023/01/21 15:28:50;;;;;;;21.98;11.07;;;2.40;99.90;;;;;;5992358;23;20018;-78
2023/01/21 15:31:19;;;;;;;19.98;11.25;;;2.40;99.90;;;;;;6040458;23;20446;-80
2023/01/21 15:33:48;;;;;;;26.77;12.30;;;2.30;99.90;;;;;;6040031;23;20022;-79
2023/01/21 15:36:19;;;;;;;20.38;11.40;;;2.20;99.90;;;;;;6015180;23;20047;-79
2023/01/21 15:38:45;;;;;;;23.05;12.55;;;2.20;99.90;;;;;;6040721;23;20015;-81
2023/01/21 15:41:26;;;;;;;27.77;12.70;;;2.10;99.90;;;;;;6014978;23;20390;-80
2023/01/21 15:44:35;;;;;;;28.95;13.50;;;2.00;99.90;;;;;;6015107;23;20387;-82
2023/01/21 15:47:19;;;;;;;23.33;12.07;;;2.00;99.90;;;;;;6005624;23;20038;-79
2023/01/21 15:50:07;;;;;;;25.55;12.20;;;1.90;99.90;;;;;;6015064;23;20480;-79
2023/01/21 15:52:47;;;;;;;29.52;14.07;;;1.80;99.90;;;;;;6014767;23;20023;-76
2023/01/21 15:55:27;;;;;;;33.20;16.23;;;1.70;99.90;;;;;;6015967;23;20143;-79
2023/01/21 15:58:05;;;;;;;22.75;11.73;;;1.60;99.90;;;;;;6015135;23;20019;-79
2023/01/21 16:00:48;;;;;;;20.55;10.68;;;1.60;99.90;;;;;;6038986;23;20338;-81
2023/01/21 16:03:26;;;;;;;19.52;10.43;;;1.50;99.90;;;;;;5991241;23;20331;-79
2023/01/21 16:06:01;;;;;;;20.27;10.48;;;1.40;99.90;;;;;;6014814;23;20026;-84
2023/01/21 16:08:39;;;;;;;21.45;10.27;;;1.40;99.90;;;;;;6040919;23;20019;-80
2023/01/21 16:11:23;;;;;;;20.92;10.50;;;1.30;99.90;;;;;;6040507;23;20015;-78
2023/01/21 16:14:20;;;;;;;22.15;11.20;;;1.20;99.90;;;;;;6014713;23;20019;-77
2023/01/21 16:16:52;;;;;;;23.95;11.52;;;1.20;99.90;;;;;;6016229;23;20022;-82
2023/01/21 16:19:22;;;;;;;24.08;11.77;;;1.10;99.90;;;;;;6015639;23;20056;-79
2023/01/21 16:21:52;;;;;;;28.73;14.02;;;1.10;99.90;;;;;;5991740;23;20015;-79
2023/01/21 16:24:23;;;;;;;25.80;12.35;;;1.10;99.90;;;;;;6014711;23;20026;-78
2023/01/21 16:26:49;;;;;;;24.17;12.15;;;1.00;99.90;;;;;;6015468;23;20015;-78
2023/01/21 16:29:15;;;;;;;26.63;13.25;;;0.90;99.90;;;;;;6014672;23;20026;-82
2023/01/21 16:31:50;;;;;;;28.00;14.55;;;0.90;99.90;;;;;;6014487;23;20019;-83
2023/01/21 16:34:37;;;;;;;26.38;12.70;;;0.80;99.90;;;;;;6014748;23;20129;-80
2023/01/21 16:37:10;;;;;;;27.15;13.15;;;0.80;99.90;;;;;;6014782;23;20341;-81
2023/01/21 16:39:35;;;;;;;28.15;13.40;;;0.70;99.90;;;;;;6014808;23;20094;-81
2023/01/21 16:42:03;;;;;;;26.67;13.25;;;0.70;99.90;;;;;;6014807;23;20464;-78
2023/01/21 16:44:32;;;;;;;26.05;13.00;;;0.70;99.90;;;;;;6014550;23;20066;-81
2023/01/21 16:46:58;;;;;;;26.38;13.38;;;0.60;99.90;;;;;;6014539;23;20019;-79
2023/01/21 16:49:25;;;;;;;24.23;12.55;;;0.60;99.90;;;;;;6014462;23;20019;-81
2023/01/21 16:51:52;;;;;;;25.95;12.23;;;0.60;99.90;;;;;;6014228;23;20090;-85
2023/01/21 16:54:18;;;;;;;24.38;12.30;;;0.50;99.90;;;;;;6014532;23;20090;-81
2023/01/21 16:56:51;;;;;;;29.17;13.52;;;0.50;99.90;;;;;;6014427;23;20107;-81
2023/01/21 16:59:24;;;;;;;29.05;13.40;;;0.50;99.90;;;;;;6014594;23;20023;-79
2023/01/21 17:01:50;;;;;;;27.45;13.45;;;0.40;99.90;;;;;;6014147;23;20064;-81
2023/01/21 17:04:16;;;;;;;34.40;14.20;;;0.40;99.90;;;;;;6039582;23;20039;-81
2023/01/21 17:06:44;;;;;;;29.25;12.93;;;0.40;99.90;;;;;;6039957;23;20019;-81
2023/01/21 17:09:26;;;;;;;29.20;13.77;;;0.30;99.90;;;;;;6014044;23;20340;-82
2023/01/21 17:11:53;;;;;;;27.67;13.43;;;0.30;99.90;;;;;;6014263;23;20394;-84
2023/01/21 17:14:26;;;;;;;29.45;12.48;;;0.30;99.90;;;;;;6013973;23;20015;-83
2023/01/21 17:16:54;;;;;;;29.73;13.52;;;0.20;99.90;;;;;;6014105;23;20019;-80
2023/01/21 17:19:32;;;;;;;26.38;12.65;;;0.20;99.90;;;;;;6014087;23;20015;-82
2023/01/21 17:22:02;;;;;;;29.88;13.15;;;0.20;99.90;;;;;;6013931;23;20019;-83
2023/01/21 17:24:33;;;;;;;28.58;13.65;;;0.20;99.90;;;;;;6039982;23;20368;-84
2023/01/21 17:27:07;;;;;;;23.15;12.02;;;0.20;99.90;;;;;;6039343;23;20012;-79
2023/01/21 17:29:33;;;;;;;29.43;13.20;;;0.10;99.90;;;;;;6014081;23;20013;-80
2023/01/21 17:32:24;;;;;;;22.38;11.80;;;0.10;99.90;;;;;;6013833;23;20016;-84
2023/01/21 17:35:14;;;;;;;26.52;13.38;;;0.10;99.90;;;;;;6015218;23;20086;-81
2023/01/21 17:37:42;;;;;;;25.77;13.18;;;0.10;99.90;;;;;;6039821;23;20011;-79
2023/01/21 17:40:30;;;;;;;25.92;12.55;;;0.00;99.90;;;;;;6013941;23;20019;-85
2023/01/21 17:42:57;;;;;;;23.92;13.13;;;0.00;99.90;;;;;;5990644;23;20019;-84
2023/01/21 17:45:41;;;;;;;22.00;12.32;;;0.00;99.90;;;;;;6039658;23;20091;-82
2023/01/21 17:48:22;;;;;;;23.40;12.65;;;0.00;99.90;;;;;;6013973;23;20019;-80
2023/01/21 17:50:48;;;;;;;21.30;12.00;;;0.00;99.90;;;;;;6013775;23;20022;-79
2023/01/21 17:53:26;;;;;;;24.77;13.30;;;0.00;99.90;;;;;;5990742;23;20023;-79
2023/01/21 17:56:02;;;;;;;23.75;13.02;;;-0.10;99.90;;;;;;6015331;23;20094;-83
2023/01/21 17:58:30;;;;;;;28.48;12.93;;;0.00;99.90;;;;;;6039591;23;20007;-81